Flight Track Log - Related Links

Times and Time Zones

All times are in EDT time to prevent confusion due to time zone crossing. See the SWA59 flight status page for this flight to view local times or setup timezone preferences in your user account.

Time Position Orientation Groundspeed Altitude Reporting Facility
EDT Latitude Longitude Course Direction KTS MPH feet Rate Location/Type
Fri 08:04:07 PM 38.7303 -90.5658 223° Southwest 245 282 6,600  Level Kansas City Center
Fri 08:05:09 PM 38.6689 -90.6117 210° Southwest 256 295 10,300 2,952 Climbing Kansas City Center
Fri 08:06:11 PM 38.5986 -90.6756 215° Southwest 295 339 12,700 2,683 Climbing Kansas City Center
Fri 08:07:00 PM 38.3575 -90.8351 238° Southwest  Level FlightAware Approximate
Fri 08:07:12 PM 38.5253 -90.7503 219° Southwest 323 372 15,800  Level Kansas City Center
Fri 08:08:00 PM 38.2943 -90.9484 233° Southwest  Level FlightAware Approximate
Fri 08:08:14 PM 38.4333 -90.8436 219° Southwest 342 394 19,400  Level Kansas City Center
Fri 08:09:16 PM 38.3531 -90.9256 219° Southwest 358 412 21,900 2,371 Climbing Kansas City Center
Fri 08:10:18 PM 38.2656 -91.0089 217° Southwest 387 445 24,300 2,146 Climbing Kansas City Center
Fri 08:11:19 PM 38.1739 -91.0886 214° Southwest 397 457 26,300 1,902 Climbing Kansas City Center
Fri 08:12:21 PM 38.0722 -91.1772 214° Southwest 414 476 28,200 1,790 Climbing Kansas City Center
Fri 08:13:23 PM 37.9772 -91.2756 219° Southwest 434 499 30,000 1,854 Climbing Kansas City Center
Fri 08:14:24 PM 37.8883 -91.3947 227° Southwest 457 526 32,000 2,244 Climbing Kansas City Center
Fri 08:15:26 PM 37.8033 -91.5089 227° Southwest 448 516 34,600 2,032 Climbing Kansas City Center
Fri 08:16:28 PM 37.7206 -91.6172 226° Southwest 432 497 36,200 1,317 Climbing Kansas City Center
Fri 08:17:29 PM 37.6361 -91.7278 226° Southwest 431 496 37,300 1,317 Climbing Kansas City Center
Fri 08:18:31 PM 37.5328 -91.8564 225° Southwest 431 496 38,900 1,065 Climbing Kansas City Center
Fri 08:19:33 PM 37.4444 -91.9608 223° Southwest 430 495 39,500 484 Climbing Kansas City Center
Fri 08:20:35 PM 37.3531 -92.0672 223° Southwest 438 504 39,900 244 Climbing Kansas City Center
Fri 08:21:36 PM 37.2608 -92.1733 222° Southwest 443 510 40,000 49 Climbing Kansas City Center
Fri 08:22:38 PM 37.1700 -92.2789 223° Southwest 443 510 40,000  Level Kansas City Center
Fri 08:23:39 PM 37.0789 -92.3850 223° Southwest 443 510 40,000  Level Kansas City Center
Fri 08:24:41 PM 36.9864 -92.4906 222° Southwest 445 512 40,000  Level Kansas City Center
Fri 08:25:43 PM 36.8956 -92.5961 223° Southwest 444 511 40,000  Level Kansas City Center
Fri 08:26:44 PM 36.8047 -92.6983 222° Southwest 439 505 40,000  Level Kansas City Center
Fri 08:27:46 PM 36.7144 -92.8000 222° Southwest 437 503 40,000  Level Kansas City Center
Fri 08:28:48 PM 36.6244 -92.9014 222° Southwest 435 501 40,000  Level Kansas City Center
Fri 08:29:56 PM 36.5178 -93.0267 223° Southwest 441 507 40,000  Level Memphis Center
Fri 08:30:56 PM 36.4281 -93.1269 222° Southwest 441 507 40,000  Level Memphis Center
Fri 08:31:56 PM 36.3383 -93.2269 222° Southwest 441 507 40,000  Level Memphis Center
Fri 08:32:56 PM 36.2378 -93.3367 221° Southwest 441 507 40,000  Level Memphis Center
Fri 08:33:56 PM 36.1456 -93.4386 222° Southwest 441 507 40,000  Level Memphis Center
Fri 08:34:56 PM 36.0578 -93.5381 222° Southwest 441 507 40,000  Level Memphis Center
Fri 08:35:56 PM 35.9675 -93.6372 222° Southwest 441 507 40,000  Level Memphis Center
Fri 08:36:56 PM 35.8772 -93.7386 222° Southwest 441 507 40,000  Level Memphis Center
Fri 08:37:56 PM 35.7847 -93.8372 221° Southwest 441 507 40,000  Level Memphis Center
Fri 08:38:56 PM 35.6944 -93.9358 222° Southwest 447 514 40,000  Level Memphis Center
Fri 08:39:56 PM 35.6017 -94.0389 222° Southwest 453 521 40,000  Level Memphis Center
Fri 08:40:56 PM 35.5089 -94.1419 222° Southwest 453 521 40,000  Level Memphis Center
Fri 08:41:56 PM 35.4142 -94.2419 221° Southwest 453 521 40,000  Level Memphis Center
Fri 08:42:56 PM 35.3233 -94.3422 222° Southwest 448 516 40,000  Level Memphis Center
Fri 08:43:56 PM 35.2283 -94.4444 221° Southwest 448 516 40,000  Level Memphis Center
Fri 08:44:56 PM 35.1375 -94.5442 222° Southwest 448 516 40,000  Level Memphis Center
Fri 08:46:04 PM 35.0483 -94.6417 222° Southwest 439 505 40,000  Level Fort Worth Center
Fri 08:47:03 PM 34.9544 -94.7433 222° Southwest 439 505 40,000  Level Fort Worth Center
Fri 08:48:03 PM 34.8586 -94.8503 222° Southwest 439 505 40,000  Level Fort Worth Center
Fri 08:49:03 PM 34.7644 -94.9389 218° Southwest 439 505 40,000  Level Fort Worth Center
Fri 08:50:03 PM 34.6681 -95.0275 217° Southwest 434 499 40,000  Level Fort Worth Center
Fri 08:51:03 PM 34.5739 -95.1186 219° Southwest 434 499 40,000 -400 Level Fort Worth Center
Fri 08:52:03 PM 34.4794 -95.2067 218° Southwest 434 499 39,200  Descending Fort Worth Center
Fri 08:53:03 PM 34.3808 -95.2872 214° Southwest 434 499 40,000 -2,050 Climbing Fort Worth Center
Fri 08:54:03 PM 34.2669 -95.3503 205° Southwest 434 499 35,100 -4,000 Descending Fort Worth Center
Fri 08:55:03 PM 34.1553 -95.4081 203° Southwest 445 512 32,000 -2,700 Descending Fort Worth Center
Fri 08:56:03 PM 34.0606 -95.4956 217° Southwest 439 505 29,700 -2,300 Descending Fort Worth Center
Fri 08:57:03 PM 33.9764 -95.5850 221° Southwest 425 489 27,400 -2,200 Descending Fort Worth Center
Fri 08:58:03 PM 33.8919 -95.6694 220° Southwest 411 473 25,300 -2,100 Descending Fort Worth Center
Fri 08:59:03 PM 33.8181 -95.7508 222° Southwest 390 449 23,200 -2,000 Descending Fort Worth Center
Fri 09:00:03 PM 33.7461 -95.8297 222° Southwest 369 425 21,300 -1,950 Descending Fort Worth Center
Fri 09:01:03 PM 33.6678 -95.9086 220° Southwest 363 418 19,300 -1,850 Descending Fort Worth Center
Fri 09:02:03 PM 33.6058 -95.9769 223° Southwest 347 399 17,600 -1,950 Descending Fort Worth Center
Fri 09:03:03 PM 33.5275 -96.0603 222° Southwest 347 399 15,400 -2,050 Descending Fort Worth Center
Fri 09:04:03 PM 33.4614 -96.1286 221° Southwest 354 407 13,500 -2,000 Descending Fort Worth Center
Fri 09:05:03 PM 33.3850 -96.2069 221° Southwest 348 400 11,400 -1,700 Descending Fort Worth Center
Fri 09:06:03 PM 33.3250 -96.2722 222° Southwest 328 377 10,100 -1,200 Descending Fort Worth Center
Fri 09:07:03 PM 33.2608 -96.3403 222° Southwest 299 344 9,000 -550 Descending Fort Worth Center
Fri 09:08:03 PM 33.2028 -96.3881 215° Southwest 286 329 9,000 -800 Level Fort Worth Center
Fri 09:09:03 PM 33.1261 -96.4361 208° Southwest 286 329 7,400 -1,400 Descending Fort Worth Center
Fri 09:10:03 PM 33.0658 -96.4789 211° Southwest 291 335 6,200 -1,400 Descending Fort Worth Center
Fri 09:11:03 PM 33.0017 -96.5439 220° Southwest 284 327 4,600 -1,500 Descending Fort Worth Center
Fri 09:12:03 PM 32.9478 -96.5989 221° Southwest 273 314 3,200 -800 Descending Fort Worth Center
Fri 09:13:03 PM 32.8936 -96.6539 220° Southwest 263 303 3,000 -100 Descending Fort Worth Center
Fri 09:14:03 PM 32.8419 -96.7061 220° Southwest 252 290 3,000 -362 Level Fort Worth Center
Fri 09:14:59 PM 32.8000 -96.7500 221° Southwest 194 223 2,300 -689 Descending Dallas / Fort Worth TRACON
Fri 09:16:05 PM 32.8000 -96.8000 270° West 130 150 1,600 -800 Descending Dallas / Fort Worth TRACON
Fri 09:16:59 PM 32.8333 -96.8333 320° Northwest 130 150 700 -1,000 Descending Dallas / Fort Worth TRACON

Login

Don't have an account? Register now (free) for customized features, flight alerts, and more!